Time;durP1;ratioP1;P1;durP2;ratioP2;P2;SDS_P1;SDS_P2;PMS_P1;PMS_P2;Temp;Humidity;BMP_temperature;BMP_pressure;BME280_temperature;BME280_humidity;BME280_pressure;Samples;Min_cycle;Max_cycle;Signal;HPM_P1;HPM_P2
2023/07/26 00:01:36;;;;;;;19.02;8.93;;;;;;;27.82;61.54;98008.16;5014130;28;20484;-69
2023/07/26 00:04:01;;;;;;;14.23;8.82;;;;;;;28.08;60.50;98011.94;5015584;28;20053;-69
2023/07/26 00:06:30;;;;;;;21.35;9.43;;;;;;;28.08;60.38;98014.66;5032028;28;20124;-69
2023/07/26 00:08:56;;;;;;;17.27;9.20;;;;;;;28.09;60.54;98010.84;5015092;28;20385;-69
2023/07/26 00:11:22;;;;;;;22.33;10.50;;;;;;;27.84;61.41;98016.84;5031128;28;20064;-68
2023/07/26 00:13:48;;;;;;;16.58;10.18;;;;;;;28.02;61.07;98015.91;4998500;28;20128;-68
2023/07/26 00:16:14;;;;;;;15.07;10.13;;;;;;;27.97;61.70;98008.66;5031348;28;20064;-68
2023/07/26 00:18:40;;;;;;;14.10;10.02;;;;;;;27.96;61.56;97998.03;5014925;28;20048;-67
2023/07/26 00:21:07;;;;;;;17.27;11.02;;;;;;;28.02;61.36;97996.81;4982690;28;20052;-70
2023/07/26 00:23:33;;;;;;;20.05;10.80;;;;;;;27.82;61.70;98002.72;5014578;28;20045;-67
2023/07/26 00:25:59;;;;;;;18.90;11.48;;;;;;;27.88;61.51;97996.84;5031758;28;20112;-68
2023/07/26 00:28:25;;;;;;;17.90;10.63;;;;;;;27.73;62.28;97994.47;5031155;28;20423;-69
2023/07/26 00:30:51;;;;;;;20.52;11.48;;;;;;;27.66;63.37;97985.09;4982233;28;20045;-68
2023/07/26 00:33:18;;;;;;;18.63;10.77;;;;;;;27.67;63.51;97964.88;5014915;28;20083;-68
2023/07/26 00:35:44;;;;;;;19.88;11.45;;;;;;;27.73;62.68;97982.72;5014753;28;20573;-68
2023/07/26 00:38:11;;;;;;;18.35;11.18;;;;;;;27.64;63.32;97976.41;4998215;28;20041;-67
2023/07/26 00:40:37;;;;;;;18.85;11.48;;;;;;;27.85;61.82;97974.81;4982106;28;20041;-68
2023/07/26 00:43:06;;;;;;;18.27;12.02;;;;;;;27.58;63.15;97974.91;4999044;28;20061;-69
2023/07/26 00:45:34;;;;;;;16.58;11.52;;;;;;;27.89;62.92;97973.91;4999024;28;20045;-69
2023/07/26 00:48:00;;;;;;;20.58;11.50;;;;;;;27.72;62.37;97972.94;4998805;28;20042;-69
2023/07/26 00:50:26;;;;;;;19.50;11.68;;;;;;;27.96;61.79;97979.75;5031191;28;20132;-69
2023/07/26 00:52:52;;;;;;;24.17;11.88;;;;;;;27.82;62.20;97981.69;4982473;28;20065;-70
2023/07/26 00:55:18;;;;;;;15.80;10.95;;;;;;;27.80;62.12;97974.94;5015183;28;20050;-70
2023/07/26 00:57:46;;;;;;;15.77;10.68;;;;;;;28.07;61.60;97974.84;4998589;28;20084;-69
2023/07/26 01:00:13;;;;;;;19.35;11.40;;;;;;;28.29;60.74;97969.38;4998243;28;20045;-74
2023/07/26 01:02:39;;;;;;;26.42;11.60;;;;;;;28.23;60.30;97981.50;4982168;28;20041;-69
2023/07/26 01:05:06;;;;;;;21.98;11.65;;;;;;;28.07;61.29;97990.41;4998439;28;20056;-68
2023/07/26 01:07:41;;;;;;;22.52;11.80;;;;;;;28.04;61.97;97978.19;4981814;28;20587;-68
2023/07/26 01:10:16;;;;;;;21.17;12.13;;;;;;;28.09;61.92;97961.69;4997959;28;20049;-68
2023/07/26 01:13:08;;;;;;;23.00;12.50;;;;;;;28.17;61.32;97968.34;5017063;28;20412;-68
2023/07/26 01:15:37;;;;;;;24.98;12.38;;;;;;;27.95;62.61;97959.00;5035177;28;20045;-68
2023/07/26 01:18:10;;;;;;;19.42;11.85;;;;;;;27.86;63.42;97955.38;5001540;28;20045;-68
2023/07/26 01:20:36;;;;;;;19.50;12.25;;;;;;;27.60;63.37;97948.94;5001422;28;20447;-67
2023/07/26 01:23:02;;;;;;;23.15;12.30;;;;;;;27.66;62.79;97950.41;5034236;28;20037;-70
2023/07/26 01:25:28;;;;;;;23.65;13.02;;;;;;;27.55;63.57;97954.53;5017796;28;20060;-72
2023/07/26 01:27:54;;;;;;;22.63;12.43;;;;;;;27.46;64.01;97942.72;5035311;28;20076;-67
2023/07/26 01:30:20;;;;;;;21.13;12.68;;;;;;;27.64;63.00;97940.94;5017555;28;20140;-68
2023/07/26 01:32:50;;;;;;;20.27;12.98;;;;;;;27.88;63.09;97944.19;5001220;28;20568;-69
2023/07/26 01:35:17;;;;;;;18.60;12.38;;;;;;;27.74;62.87;97940.69;4984955;28;20071;-68
2023/07/26 01:37:43;;;;;;;26.88;12.73;;;;;;;27.51;63.44;97944.50;5017460;28;20479;-68
2023/07/26 01:40:11;;;;;;;24.55;12.82;;;;;;;27.67;64.07;97945.78;5001524;28;20392;-68
2023/07/26 01:42:38;;;;;;;26.05;14.02;;;;;;;27.49;64.05;97949.47;5035060;28;20400;-69
2023/07/26 01:45:06;;;;;;;26.67;13.45;;;;;;;27.29;65.30;97937.09;5017464;28;20033;-69
2023/07/26 01:47:32;;;;;;;30.27;13.75;;;;;;;27.28;64.90;97940.13;4984847;28;20357;-69
2023/07/26 01:49:57;;;;;;;30.90;13.27;;;;;;;27.35;64.60;97954.16;5001143;28;20078;-69
2023/07/26 01:52:25;;;;;;;29.55;13.73;;;;;;;27.35;64.86;97951.44;5017520;28;20441;-69
2023/07/26 01:54:53;;;;;;;21.48;12.38;;;;;;;27.28;65.17;97945.59;5001437;28;20484;-68
2023/07/26 01:57:24;;;;;;;22.17;12.85;;;;;;;27.53;63.93;97953.19;5000668;28;20049;-68
2023/07/26 01:59:52;;;;;;;24.33;13.02;;;;;;;27.70;63.51;97950.63;5018054;28;20057;-69
2023/07/26 02:02:18;;;;;;;23.90;13.55;;;;;;;27.52;63.88;97955.09;5016883;28;20064;-69
2023/07/26 02:04:44;;;;;;;25.70;13.43;;;;;;;27.65;63.97;97939.81;5000803;28;20126;-67
2023/07/26 02:07:10;;;;;;;33.05;14.80;;;;;;;27.36;64.79;97936.69;5033549;28;20064;-67
2023/07/26 02:09:38;;;;;;;26.08;14.52;;;;;;;27.30;64.47;97946.09;5033883;28;20038;-68
2023/07/26 02:12:04;;;;;;;22.27;13.95;;;;;;;27.50;65.04;97934.72;4997925;28;20049;-68
2023/07/26 02:14:30;;;;;;;25.42;14.70;;;;;;;27.45;64.55;97926.66;4981861;28;20050;-72
2023/07/26 02:16:57;;;;;;;32.97;14.95;;;;;;;27.48;63.82;97942.41;4997537;28;20483;-68
2023/07/26 02:19:24;;;;;;;26.02;14.10;;;;;;;27.57;63.80;97926.94;4965644;28;20044;-69
2023/07/26 02:21:49;;;;;;;33.03;13.73;;;;;;;27.40;64.85;97937.69;4987843;28;20054;-68
2023/07/26 02:24:15;;;;;;;20.25;13.27;;;;;;;27.60;63.68;97937.22;4994582;28;20085;-69
2023/07/26 02:26:41;;;;;;;29.60;14.40;;;;;;;27.42;64.52;97938.19;4994491;28;20053;-69
2023/07/26 02:29:09;;;;;;;29.85;14.50;;;;;;;27.46;63.80;97941.91;4962555;28;20041;-69
2023/07/26 02:31:34;;;;;;;27.95;14.13;;;;;;;27.52;63.46;97937.97;5010999;28;20560;-68
2023/07/26 02:34:02;;;;;;;24.60;14.00;;;;;;;27.37;64.69;97938.31;4962670;28;20049;-69
2023/07/26 02:36:27;;;;;;;25.25;13.55;;;;;;;27.42;64.42;97943.63;5011058;28;20052;-69
2023/07/26 02:38:53;;;;;;;32.35;14.43;;;;;;;27.43;64.45;97945.25;4946087;28;20140;-68
2023/07/26 02:41:19;;;;;;;20.80;14.07;;;;;;;27.65;63.28;97945.28;4978439;28;20057;-69
2023/07/26 02:43:45;;;;;;;26.00;14.73;;;;;;;27.60;63.40;97940.75;4994743;28;20053;-68
2023/07/26 02:46:12;;;;;;;22.20;17.02;;;;;;;27.72;62.86;97943.72;5014797;28;20040;-70
2023/07/26 02:48:38;;;;;;;26.08;16.63;;;;;;;27.81;62.19;97935.63;4998886;28;20396;-68
2023/07/26 02:51:04;;;;;;;24.15;16.02;;;;;;;27.84;61.82;97945.91;5015218;28;20053;-69
2023/07/26 02:53:30;;;;;;;24.45;16.92;;;;;;;27.87;61.80;97935.22;5031751;28;20038;-68
2023/07/26 02:55:56;;;;;;;22.33;12.15;;;;;;;27.60;62.07;97932.56;4998128;28;20037;-69
2023/07/26 02:58:21;;;;;;;22.42;13.93;;;;;;;27.89;61.72;97935.69;4996457;28;20551;-68
2023/07/26 03:00:53;;;;;;;21.90;14.63;;;;;;;28.24;61.46;97930.47;5013552;28;20098;-68
2023/07/26 03:03:20;;;;;;;21.52;13.43;;;;;;;28.10;60.33;97941.47;4996393;28;20413;-69
2023/07/26 03:05:47;;;;;;;23.35;14.30;;;;;;;27.95;61.10;97944.59;4982369;28;20140;-68
2023/07/26 03:08:13;;;;;;;24.95;13.65;;;;;;;28.11;60.37;97950.47;4966064;28;20583;-66
2023/07/26 03:10:41;;;;;;;23.83;13.60;;;;;;;28.32;60.29;97954.28;4981311;28;20132;-66
2023/07/26 03:13:07;;;;;;;22.08;13.88;;;;;;;28.09;60.40;97958.16;4998190;28;20041;-67
2023/07/26 03:15:33;;;;;;;24.13;12.88;;;;;;;28.02;60.05;97942.22;4982631;28;20064;-69
2023/07/26 03:17:59;;;;;;;22.25;13.30;;;;;;;28.08;60.30;97954.59;4999086;28;20511;-67
2023/07/26 03:20:25;;;;;;;19.67;14.07;;;;;;;28.25;59.64;97949.25;4997585;28;20128;-67
2023/07/26 03:22:53;;;;;;;20.20;13.38;;;;;;;28.40;59.11;97956.25;4981848;28;20045;-67
2023/07/26 03:25:19;;;;;;;26.35;13.18;;;;;;;28.36;59.06;97961.53;4981775;28;20160;-67
2023/07/26 03:27:45;;;;;;;23.10;12.43;;;;;;;28.53;58.43;97958.09;4997841;28;20041;-67
2023/07/26 03:30:13;;;;;;;23.00;12.18;;;;;;;28.40;58.67;97948.06;4995701;28;20206;-68
2023/07/26 03:32:38;;;;;;;16.63;12.35;;;;;;;28.44;58.37;97946.31;4982406;28;20043;-68
2023/07/26 03:35:05;;;;;;;19.92;12.45;;;;;;;28.33;59.37;97953.97;4998270;28;20521;-69
2023/07/26 03:37:30;;;;;;;19.05;11.35;;;;;;;28.55;58.29;97951.22;4998761;28;20445;-69
2023/07/26 03:39:57;;;;;;;16.83;8.80;;;;;;;28.95;56.67;97952.81;4982392;28;20042;-69
2023/07/26 03:42:25;;;;;;;14.73;9.30;;;;;;;29.42;55.12;97943.78;5014091;28;20152;-67
2023/07/26 03:44:53;;;;;;;15.23;8.73;;;;;;;29.86;53.24;97945.38;4998611;28;20045;-69
2023/07/26 03:47:19;;;;;;;13.95;9.02;;;;;;;30.04;51.30;97948.94;4998248;28;20038;-69
2023/07/26 03:49:45;;;;;;;16.20;8.18;;;;;;;30.49;49.55;97948.19;4977924;28;20061;-69
2023/07/26 03:52:11;;;;;;;15.35;8.45;;;;;;;30.82;48.19;97951.16;5010438;28;20503;-69
2023/07/26 03:54:40;;;;;;;24.80;8.82;;;;;;;30.90;48.02;97951.13;4977770;28;20057;-68
2023/07/26 03:57:07;;;;;;;13.48;8.02;;;;;;;30.87;47.18;97929.84;4978039;28;20061;-73
2023/07/26 03:59:36;;;;;;;15.55;7.63;;;;;;;30.90;47.32;97929.19;4962476;28;20041;-68
2023/07/26 04:02:02;;;;;;;14.05;7.95;;;;;;;31.06;47.04;97924.72;4978173;28;20059;-70
2023/07/26 04:04:28;;;;;;;15.18;7.63;;;;;;;31.31;46.09;97928.47;4961255;28;20042;-68
2023/07/26 04:06:54;;;;;;;11.57;7.10;;;;;;;31.30;45.82;97917.84;4977307;28;20480;-69
2023/07/26 04:09:22;;;;;;;9.73;7.55;;;;;;;31.42;45.40;97912.41;5013627;28;20049;-67
2023/07/26 04:11:55;;;;;;;13.88;7.15;;;;;;;31.72;45.15;97912.00;4979672;28;20060;-68
2023/07/26 04:14:22;;;;;;;13.07;7.20;;;;;;;31.70;43.82;97914.28;4994825;28;20053;-68
2023/07/26 04:16:50;;;;;;;13.63;6.78;;;;;;;31.93;43.33;97910.06;5027202;28;20384;-68
2023/07/26 04:19:21;;;;;;;12.40;7.57;;;;;;;31.93;43.74;97903.75;5004525;28;20045;-67
2023/07/26 04:21:47;;;;;;;9.02;6.78;;;;;;;31.62;43.13;97903.38;5003824;28;20104;-66
2023/07/26 04:24:14;;;;;;;9.88;6.53;;;;;;;31.65;43.96;97902.69;4988587;28;20048;-66
2023/07/26 04:26:39;;;;;;;14.45;6.57;;;;;;;31.68;42.70;97894.59;5013002;28;20048;-66
2023/07/26 04:29:05;;;;;;;10.93;6.95;;;;;;;31.71;42.43;97898.59;5031938;28;20032;-67
2023/07/26 04:31:31;;;;;;;18.00;6.75;;;;;;;31.64;42.70;97901.91;5011602;28;20131;-66
2023/07/26 04:33:56;;;;;;;11.32;6.55;;;;;;;31.82;42.80;97908.03;5036489;28;20055;-68
2023/07/26 04:36:22;;;;;;;12.65;6.70;;;;;;;32.00;42.02;97902.06;5020489;28;20471;-67
2023/07/26 04:38:49;;;;;;;12.57;6.88;;;;;;;32.01;42.41;97895.44;5004699;28;20044;-66
2023/07/26 04:41:15;;;;;;;11.23;6.47;;;;;;;32.18;41.53;97889.75;5059124;28;20044;-66
2023/07/26 04:43:41;;;;;;;20.05;8.05;;;;;;;32.15;41.81;97893.19;5046725;28;20494;-66
2023/07/26 04:46:07;;;;;;;12.52;7.05;;;;;;;32.20;41.96;97894.91;4993651;28;20103;-71
2023/07/26 04:48:33;;;;;;;14.02;7.90;;;;;;;32.19;41.42;97891.38;4958187;28;20123;-67
2023/07/26 04:50:58;;;;;;;17.60;6.90;;;;;;;32.35;41.75;97880.53;4981531;28;20068;-66
2023/07/26 04:53:24;;;;;;;11.50;6.82;;;;;;;32.30;41.59;97878.81;4962598;28;20065;-66
2023/07/26 04:55:51;;;;;;;12.30;6.90;;;;;;;32.18;41.77;97880.72;5011947;28;20515;-66
2023/07/26 04:58:18;;;;;;;13.88;7.03;;;;;;;32.11;41.34;97880.47;4998368;28;20052;-67
2023/07/26 05:00:44;;;;;;;12.95;7.20;;;;;;;32.07;41.41;97883.09;4980058;28;20068;-67
2023/07/26 05:03:10;;;;;;;8.30;6.47;;;;;;;31.91;41.81;97873.09;4980197;28;20092;-65
2023/07/26 05:05:36;;;;;;;11.75;6.88;;;;;;;31.99;42.19;97873.00;4981769;28;20061;-66
2023/07/26 05:08:02;;;;;;;14.38;7.00;;;;;;;32.14;41.72;97883.34;4981177;28;20045;-66
2023/07/26 05:10:29;;;;;;;12.13;7.22;;;;;;;31.93;41.43;97868.88;4997226;28;20056;-66
2023/07/26 05:12:56;;;;;;;14.10;7.03;;;;;;;32.06;41.58;97865.00;4980903;28;20076;-66
2023/07/26 05:15:22;;;;;;;13.05;6.80;;;;;;;32.25;41.59;97859.78;4997212;28;20045;-66
2023/07/26 05:17:49;;;;;;;12.88;7.20;;;;;;;32.72;40.55;97851.13;5013671;28;20065;-66
2023/07/26 05:20:15;;;;;;;13.10;6.88;;;;;;;32.74;40.15;97851.59;5001378;28;20554;-66
2023/07/26 05:22:41;;;;;;;16.70;7.25;;;;;;;32.83;40.29;97846.78;5017582;28;20105;-66
2023/07/26 05:25:07;;;;;;;15.63;6.75;;;;;;;32.84;39.77;97846.44;5001827;28;20041;-66
2023/07/26 05:27:33;;;;;;;16.60;6.50;;;;;;;32.98;39.74;97846.09;5017709;28;20129;-66
2023/07/26 05:29:59;;;;;;;12.88;6.57;;;;;;;32.88;39.24;97841.84;5001066;28;20696;-65
2023/07/26 05:32:26;;;;;;;12.18;6.32;;;;;;;32.96;38.84;97851.94;5001150;28;20038;-65
2023/07/26 05:34:54;;;;;;;11.25;6.18;;;;;;;33.19;38.86;97842.03;5034135;28;20107;-65
2023/07/26 05:37:21;;;;;;;17.65;7.07;;;;;;;32.81;39.71;97838.06;5000829;28;20073;-65
2023/07/26 05:39:48;;;;;;;11.40;7.00;;;;;;;32.85;40.04;97844.47;5001086;28;20480;-65
2023/07/26 05:42:14;;;;;;;12.38;6.43;;;;;;;32.96;39.52;97840.13;5001344;28;20071;-66
2023/07/26 05:44:40;;;;;;;12.40;7.25;;;;;;;33.37;39.33;97835.09;5001211;28;20041;-65
2023/07/26 05:47:06;;;;;;;13.52;6.47;;;;;;;33.41;39.01;97837.97;5001061;28;20050;-65
2023/07/26 05:49:32;;;;;;;14.40;6.38;;;;;;;33.42;38.87;97839.56;4984532;28;20045;-65
2023/07/26 05:51:59;;;;;;;10.13;6.53;;;;;;;33.52;38.78;97839.88;4968827;28;20427;-65
2023/07/26 05:54:27;;;;;;;13.90;6.70;;;;;;;33.66;38.63;97845.00;5000960;28;20056;-65
2023/07/26 05:56:52;;;;;;;9.10;6.43;;;;;;;33.66;38.06;97837.50;5000322;28;20041;-65
2023/07/26 05:59:18;;;;;;;9.80;6.93;;;;;;;33.67;37.86;97835.56;5032988;28;20041;-65
2023/07/26 06:01:45;;;;;;;11.70;6.88;;;;;;;33.48;38.12;97852.75;5033362;28;20507;-65
2023/07/26 06:04:11;;;;;;;12.27;7.03;;;;;;;33.58;38.20;97841.22;5000793;28;20075;-65
2023/07/26 06:06:37;;;;;;;11.55;6.90;;;;;;;33.22;38.47;97844.09;5034118;28;20551;-65
2023/07/26 06:09:05;;;;;;;13.32;6.75;;;;;;;33.33;39.58;97841.63;5000830;28;20048;-65
2023/07/26 06:11:31;;;;;;;11.35;6.50;;;;;;;33.06;39.61;97829.44;5000368;28;20076;-66
2023/07/26 06:13:58;;;;;;;14.07;6.47;;;;;;;33.48;39.22;97841.72;4984434;28;20037;-66
2023/07/26 06:16:23;;;;;;;12.45;6.63;;;;;;;33.40;39.37;97839.91;5016903;28;20080;-69
2023/07/26 06:18:49;;;;;;;10.55;6.88;;;;;;;33.55;38.90;97830.13;5033344;28;20120;-65
2023/07/26 06:21:17;;;;;;;10.57;6.43;;;;;;;33.82;38.22;97827.34;5000411;28;20045;-66
2023/07/26 06:23:43;;;;;;;9.05;6.70;;;;;;;33.99;37.79;97840.00;5033147;28;20045;-67
2023/07/26 06:26:10;;;;;;;14.30;6.82;;;;;;;33.91;38.55;97824.44;5017099;28;20041;-66
2023/07/26 06:28:35;;;;;;;11.57;6.32;;;;;;;34.13;37.76;97813.66;5033887;28;20380;-65
2023/07/26 06:31:01;;;;;;;13.13;6.50;;;;;;;34.48;36.76;97810.16;5002209;28;20042;-65
2023/07/26 06:33:27;;;;;;;14.35;6.55;;;;;;;34.52;36.51;97808.31;5001831;28;20049;-67
2023/07/26 06:35:56;;;;;;;13.75;7.07;;;;;;;34.75;36.77;97785.22;5001142;28;20056;-66
2023/07/26 06:38:22;;;;;;;11.73;6.72;;;;;;;34.33;36.65;97803.50;5017323;28;20050;-65
2023/07/26 06:40:48;;;;;;;12.60;6.43;;;;;;;34.22;37.22;97791.41;5017072;28;20065;-65
2023/07/26 06:43:14;;;;;;;11.32;7.07;;;;;;;34.36;37.06;97783.50;5032872;28;20037;-70
2023/07/26 06:45:47;;;;;;;18.30;6.80;;;;;;;34.85;36.71;97790.19;5000482;28;20560;-65
2023/07/26 06:48:14;;;;;;;9.60;6.68;;;;;;;34.82;36.42;97787.34;5016827;28;20469;-68
2023/07/26 06:50:41;;;;;;;15.90;6.78;;;;;;;35.08;36.05;97779.25;5016983;28;20132;-65
2023/07/26 06:53:07;;;;;;;16.33;7.45;;;;;;;35.02;35.48;97767.72;4985004;28;20053;-67
2023/07/26 06:55:33;;;;;;;18.63;7.35;;;;;;;35.77;34.65;97764.50;5016673;28;20091;-66
2023/07/26 06:57:59;;;;;;;11.63;6.53;;;;;;;36.27;33.12;97759.47;5032512;28;20045;-66
2023/07/26 07:00:27;;;;;;;13.93;6.45;;;;;;;36.59;32.49;97752.50;5032990;28;20041;-66
2023/07/26 07:02:57;;;;;;;13.80;6.53;;;;;;;37.30;31.45;97765.38;4999858;28;20095;-66
2023/07/26 07:05:26;;;;;;;16.48;6.32;;;;;;;37.20;30.70;97766.78;5016139;28;20045;-66
2023/07/26 07:07:51;;;;;;;11.40;6.35;;;;;;;37.10;31.23;97752.81;4983754;28;20511;-66
2023/07/26 07:10:17;;;;;;;15.90;6.15;;;;;;;37.53;30.45;97756.91;4998373;28;20037;-66
2023/07/26 07:12:44;;;;;;;13.75;6.63;;;;;;;37.70;30.20;97750.78;5015803;28;20054;-66
2023/07/26 07:15:11;;;;;;;14.52;6.55;;;;;;;37.64;29.74;97755.84;4999685;28;20118;-65
2023/07/26 07:17:37;;;;;;;8.27;6.30;;;;;;;37.65;30.17;97754.66;4999267;28;20099;-65
2023/07/26 07:20:05;;;;;;;13.05;6.60;;;;;;;38.10;29.22;97764.63;4999333;28;20045;-66
2023/07/26 07:22:32;;;;;;;11.13;6.65;;;;;;;37.87;30.34;97755.72;5015814;28;20049;-66
2023/07/26 07:24:58;;;;;;;22.10;7.53;;;;;;;38.16;29.58;97752.84;5031929;28;20483;-66
2023/07/26 07:27:24;;;;;;;11.90;6.35;;;;;;;38.02;29.43;97744.38;5015400;28;20068;-66
2023/07/26 07:29:51;;;;;;;13.18;6.13;;;;;;;39.00;28.49;97752.66;5031856;28;20095;-66
2023/07/26 07:32:18;;;;;;;13.65;6.22;;;;;;;39.77;27.24;97741.00;4998781;28;20044;-67
2023/07/26 07:34:44;;;;;;;11.48;5.72;;;;;;;40.55;26.05;97753.00;5033973;28;20155;-66
2023/07/26 07:37:10;;;;;;;13.23;6.80;;;;;;;39.69;26.53;97736.66;5017499;28;20090;-66
2023/07/26 07:39:36;;;;;;;16.98;7.25;;;;;;;39.45;26.96;97729.84;5017656;28;20053;-66
2023/07/26 07:42:03;;;;;;;15.63;6.32;;;;;;;39.97;26.96;97740.28;5017758;28;20033;-66
2023/07/26 07:44:30;;;;;;;21.10;7.47;;;;;;;39.73;26.63;97738.25;4984959;28;20058;-66
2023/07/26 07:46:58;;;;;;;19.08;6.82;;;;;;;39.92;26.89;97745.41;5017473;28;20041;-66
2023/07/26 07:49:24;;;;;;;14.90;7.45;;;;;;;39.06;27.60;97728.88;5033918;28;20052;-66
2023/07/26 07:51:50;;;;;;;10.48;6.60;;;;;;;38.25;29.39;97731.13;5017762;28;20043;-66
2023/07/26 07:54:17;;;;;;;10.45;7.03;;;;;;;38.07;29.90;97724.63;5017584;28;20411;-66
2023/07/26 07:56:43;;;;;;;11.73;7.20;;;;;;;37.84;29.90;97735.09;5017690;28;20037;-66
2023/07/26 07:59:09;;;;;;;14.65;6.68;;;;;;;37.25;31.32;97729.69;5000834;28;20048;-66
2023/07/26 08:01:35;;;;;;;14.82;7.65;;;;;;;36.51;32.21;97722.31;4984572;28;20526;-65
2023/07/26 08:04:02;;;;;;;12.57;7.40;;;;;;;36.02;33.32;97727.88;5017181;28;20143;-65
2023/07/26 08:06:28;;;;;;;15.63;6.88;;;;;;;35.93;33.90;97727.31;5031057;28;20049;-65
2023/07/26 08:08:54;;;;;;;13.23;7.55;;;;;;;35.98;33.82;97727.00;5014840;28;20049;-65
2023/07/26 08:11:21;;;;;;;15.82;7.22;;;;;;;36.41;33.07;97736.81;5015018;28;20065;-65
2023/07/26 08:13:47;;;;;;;21.13;8.00;;;;;;;36.37;33.42;97725.69;4999080;28;20045;-66
2023/07/26 08:16:13;;;;;;;12.88;7.10;;;;;;;36.26;33.46;97741.28;5014891;28;20045;-65
2023/07/26 08:18:39;;;;;;;14.60;7.40;;;;;;;36.52;33.23;97727.47;4998132;28;20532;-66
2023/07/26 08:21:06;;;;;;;9.68;7.00;;;;;;;36.21;33.64;97736.09;5001991;28;20128;-65
2023/07/26 08:23:32;;;;;;;14.10;6.55;;;;;;;35.99;34.01;97736.09;5020162;28;20053;-65
2023/07/26 08:26:07;;;;;;;10.05;6.57;;;;;;;36.46;32.89;97728.19;5020073;28;20052;-66
2023/07/26 08:28:33;;;;;;;14.32;7.22;;;;;;;36.26;32.94;97730.22;5019959;28;20061;-66
2023/07/26 08:31:00;;;;;;;15.50;7.28;;;;;;;36.06;33.41;97736.22;5019818;28;20056;-65
2023/07/26 08:33:26;;;;;;;11.75;7.05;;;;;;;35.98;33.27;97740.03;5003696;28;20144;-66
2023/07/26 08:35:53;;;;;;;11.00;6.78;;;;;;;36.54;32.95;97736.22;5004040;28;20037;-66
2023/07/26 08:38:18;;;;;;;15.15;7.28;;;;;;;36.55;32.73;97742.56;4987712;28;20155;-65
2023/07/26 08:40:49;;;;;;;16.25;6.82;;;;;;;36.22;33.51;97728.56;5019862;28;20041;-66
2023/07/26 08:43:18;;;;;;;11.77;7.72;;;;;;;36.38;33.12;97734.78;5020162;28;20519;-66
2023/07/26 08:45:46;;;;;;;11.35;7.50;;;;;;;35.99;33.81;97722.28;5004316;28;20041;-65
2023/07/26 08:48:15;;;;;;;14.95;6.88;;;;;;;35.97;33.77;97716.34;5020368;28;20049;-66
2023/07/26 08:50:41;;;;;;;13.30;7.30;;;;;;;35.98;34.14;97698.56;5004045;28;20041;-65
2023/07/26 08:53:07;;;;;;;16.33;8.05;;;;;;;35.92;34.36;97692.53;5003611;28;20160;-66
2023/07/26 08:55:34;;;;;;;18.95;7.40;;;;;;;35.98;34.73;97690.28;5020826;28;20396;-66
2023/07/26 08:58:00;;;;;;;16.65;7.25;;;;;;;35.62;35.15;97691.63;5020723;28;20052;-66
2023/07/26 09:00:27;;;;;;;14.93;7.32;;;;;;;35.29;35.64;97672.06;5020909;28;20052;-65
2023/07/26 09:02:55;;;;;;;13.45;6.88;;;;;;;34.97;36.38;97662.34;5020937;28;20057;-66
2023/07/26 09:05:22;;;;;;;17.40;7.28;;;;;;;34.46;37.51;97664.41;5004633;28;20049;-67
2023/07/26 09:07:53;;;;;;;13.93;6.88;;;;;;;34.46;38.02;97672.69;5037386;28;20105;-65
2023/07/26 09:10:27;;;;;;;18.75;8.05;;;;;;;34.44;38.94;97627.34;5021719;28;20053;-66
2023/07/26 09:13:11;;;;;;;18.75;7.32;;;;;;;34.47;37.99;97651.44;5004581;28;20046;-65
2023/07/26 09:15:38;;;;;;;18.02;8.98;;;;;;;34.08;39.50;97628.47;5020688;28;20136;-65
2023/07/26 09:18:05;;;;;;;20.45;8.50;;;;;;;34.14;39.65;97633.38;5020369;28;20526;-67
2023/07/26 09:20:32;;;;;;;26.67;8.25;;;;;;;34.19;39.67;97622.06;5004793;28;20506;-65
2023/07/26 09:23:05;;;;;;;18.85;8.50;;;;;;;34.59;39.32;97629.22;5021052;28;20041;-65
2023/07/26 09:25:36;;;;;;;13.68;7.63;;;;;;;34.43;39.65;97623.00;5020501;28;20042;-65
2023/07/26 09:28:03;;;;;;;17.60;8.60;;;;;;;34.49;39.26;97627.06;5020656;28;20045;-65
2023/07/26 09:30:34;;;;;;;17.38;9.63;;;;;;;34.51;39.54;97624.72;5004232;28;20053;-65
2023/07/26 09:33:01;;;;;;;15.02;8.32;;;;;;;34.81;38.70;97623.00;5000894;28;20092;-65
2023/07/26 09:35:27;;;;;;;17.52;8.05;;;;;;;34.43;39.46;97626.53;5000817;28;20187;-65
2023/07/26 09:37:55;;;;;;;19.38;8.30;;;;;;;34.76;39.27;97621.34;5001210;28;20131;-65
2023/07/26 09:40:31;;;;;;;15.55;7.78;;;;;;;34.90;39.33;97618.88;5001828;28;20052;-66
2023/07/26 09:42:57;;;;;;;20.92;8.40;;;;;;;35.00;38.92;97617.47;5000852;28;20052;-66
2023/07/26 09:45:24;;;;;;;17.67;8.05;;;;;;;35.27;38.32;97619.16;5033862;28;20136;-65
2023/07/26 09:47:51;;;;;;;19.20;8.45;;;;;;;35.12;39.41;97615.34;5001371;28;20046;-65
2023/07/26 09:50:25;;;;;;;26.17;9.77;;;;;;;35.33;39.14;97623.22;5000775;28;20129;-66
2023/07/26 09:52:55;;;;;;;17.25;8.25;;;;;;;35.71;38.14;97625.88;5033670;28;20124;-66
2023/07/26 09:55:25;;;;;;;;;;;;;;;35.83;37.90;97619.38;5001345;28;20472;-66
2023/07/26 09:57:53;;;;;;;14.88;8.50;;;;;;;35.38;38.97;97609.16;5033652;28;19921;-65
2023/07/26 10:00:20;;;;;;;20.17;8.07;;;;;;;35.36;38.70;97592.97;5017019;28;20045;-66
2023/07/26 10:02:58;;;;;;;18.70;8.65;;;;;;;35.86;37.66;97593.78;5017048;28;20128;-66
2023/07/26 10:05:26;;;;;;;12.88;7.85;;;;;;;35.97;37.52;97603.03;5033503;28;20053;-65
2023/07/26 10:07:53;;;;;;;14.23;7.78;;;;;;;36.13;36.85;97601.69;4984608;28;20045;-66
2023/07/26 10:10:21;;;;;;;14.75;8.02;;;;;;;36.01;37.35;97599.16;5016619;28;20044;-66
2023/07/26 10:12:49;;;;;;;17.90;8.30;;;;;;;35.61;37.82;97620.97;5038998;28;20048;-66
2023/07/26 10:15:16;;;;;;;15.57;7.30;;;;;;;35.68;37.65;97618.31;5055439;28;20150;-66
2023/07/26 10:17:47;;;;;;;15.40;8.10;;;;;;;35.43;38.30;97609.63;5038515;28;20060;-65
2023/07/26 10:20:13;;;;;;;22.70;8.80;;;;;;;35.29;38.36;97603.06;5055419;28;20101;-66
2023/07/26 10:22:41;;;;;;;16.40;8.02;;;;;;;35.55;38.32;97606.66;5055482;28;20139;-65
2023/07/26 10:25:07;;;;;;;16.95;8.55;;;;;;;35.31;37.91;97609.78;5035216;28;20053;-66
2023/07/26 10:27:33;;;;;;;19.40;8.48;;;;;;;35.05;38.89;97604.19;5018860;28;20052;-66
2023/07/26 10:29:59;;;;;;;21.13;8.95;;;;;;;35.01;38.66;97603.31;5002640;28;20091;-66
2023/07/26 10:32:25;;;;;;;19.50;8.18;;;;;;;35.25;38.09;97611.25;5002642;28;20080;-66
2023/07/26 10:34:58;;;;;;;17.35;7.68;;;;;;;35.05;39.00;97609.72;5018870;28;20045;-66
2023/07/26 10:37:33;;;;;;;22.15;9.65;;;;;;;35.22;39.82;97591.88;5018696;28;20179;-66
2023/07/26 10:40:25;;;;;;;23.73;9.10;;;;;;;35.33;41.06;97579.84;4959993;28;20054;-65
2023/07/26 10:42:51;;;;;;;22.88;9.68;;;;;;;35.10;43.09;97570.78;4959876;28;20050;-66
2023/07/26 10:45:48;;;;;;;26.98;10.98;;;;;;;35.24;41.71;97561.94;4975871;28;20038;-66
2023/07/26 10:48:25;;;;;;;22.55;10.27;;;;;;;34.72;43.17;97551.50;4945051;28;20140;-65
2023/07/26 10:50:55;;;;;;;24.23;9.43;;;;;;;34.77;42.02;97556.72;4929109;28;20051;-67
2023/07/26 10:53:31;;;;;;;19.38;10.13;;;;;;;35.00;42.77;97532.75;4925055;28;20141;-66
2023/07/26 10:56:10;;;;;;;19.48;9.85;;;;;;;34.35;45.48;97521.97;4956716;28;20070;-67
2023/07/26 10:58:48;;;;;;;15.55;8.30;;;;;;;33.74;45.07;97547.41;4956240;28;20408;-66
2023/07/26 11:01:37;;;;;;;20.55;9.23;;;;;;;33.13;47.29;97595.00;4956244;28;20121;-66
2023/07/26 11:04:20;;;;;;;16.70;10.00;;;;;;;34.10;61.61;97609.66;4991471;28;20050;-65
2023/07/26 11:06:54;;;;;;;22.63;11.00;;;;;;;34.10;57.62;97599.44;4943577;28;20070;-65
2023/07/26 11:09:21;;;;;;;18.67;11.10;;;;;;;33.60;55.16;97601.31;4975718;28;20599;-65
2023/07/26 11:12:01;;;;;;;21.80;11.85;;;;;;;34.00;53.04;97577.13;4994849;28;20045;-65
2023/07/26 11:14:32;;;;;;;21.85;12.40;;;;;;;33.58;55.70;97587.91;4979151;28;20041;-65
2023/07/26 11:17:07;;;;;;;18.55;12.02;;;;;;;33.18;53.93;97564.47;4978938;28;20437;-70
2023/07/26 11:19:46;;;;;;;20.27;12.32;;;;;;;33.18;53.74;97564.47;4994829;28;20038;-65
2023/07/26 11:22:13;;;;;;;17.43;12.83;;;;;;;32.68;53.63;97567.84;4978762;28;20421;-66
2023/07/26 11:24:40;;;;;;;15.55;12.25;;;;;;;32.74;52.84;97557.41;5028146;28;20291;-68